Time,TemperatureF,DewpointF,PressureIn,WindDirection,WindDirectionDegrees,WindSpeedMPH,WindSpeedGustMPH,Humidity,HourlyPrecipIn,Conditions,Clouds,dailyrainin,SolarRadiationWatts/m^2,SoftwareType,DateUTC
2013-03-11 00:00:00,36.0,33.1,30.37,SE,142,8.0,12.0,89,0.00,,---,0.00,0.00,VWS V14.01,2013-03-11 04:00:00,
2013-03-11 00:01:00,36.0,33.1,30.37,SSE,156,8.0,12.0,89,0.00,,---,0.00,0.00,VWS V14.01,2013-03-11 04:01:00,
2013-03-11 00:06:00,35.9,33.0,30.37,SE,140,10.0,11.0,89,0.00,,---,0.00,0.00,VWS V14.01,2013-03-11 04:06:00,
2013-03-11 00:11:00,36.0,33.1,30.36,SSE,147,6.0,11.0,89,0.00,,---,0.00,0.00,VWS V14.01,2013-03-11 04:11:00,
2013-03-11 00:15:00,36.2,33.0,30.37,SSE,147,7.0,13.0,88,0.00,,,0.00,0.00,VWS V14.01,2013-03-11 04:15:00,
2013-03-11 00:16:00,36.0,33.1,30.36,SSE,148,9.0,11.0,89,0.00,,---,0.00,0.00,VWS V14.01,2013-03-11 04:16:00,
2013-03-11 00:21:00,36.0,33.1,30.36,SSE,150,10.0,11.0,89,0.00,,---,0.00,0.00,VWS V14.01,2013-03-11 04:21:00,
2013-03-11 00:26:00,36.0,33.1,30.35,SE,144,9.0,11.0,89,0.00,,---,0.00,0.00,VWS V14.01,2013-03-11 04:26:00,
2013-03-11 00:30:00,36.2,33.0,30.36,SE,138,12.0,14.0,88,0.00,,,0.00,0.00,VWS V14.01,2013-03-11 04:30:00,
2013-03-11 00:31:00,36.0,33.1,30.36,SSE,150,10.0,10.0,89,0.00,,---,0.00,0.00,VWS V14.01,2013-03-11 04:31:00,
2013-03-11 00:36:00,36.0,33.1,30.36,SSE,161,9.0,10.0,89,0.00,,---,0.00,0.00,VWS V14.01,2013-03-11 04:36:00,
2013-03-11 00:41:00,36.1,33.2,30.36,SSE,153,8.0,11.0,89,0.00,,---,0.00,0.00,VWS V14.01,2013-03-11 04:41:00,
2013-03-11 00:46:00,36.1,33.2,30.36,SE,140,7.0,11.0,89,0.00,,---,0.00,0.00,VWS V14.01,2013-03-11 04:46:00,
2013-03-11 00:51:00,36.2,33.6,30.36,SSE,162,9.0,11.0,90,0.00,,---,0.00,0.00,VWS V14.01,2013-03-11 04:51:00,
2013-03-11 00:56:00,36.2,33.3,30.35,SSE,152,9.0,11.0,89,0.00,,---,0.00,0.00,VWS V14.01,2013-03-11 04:56:00,
2013-03-11 01:02:00,36.3,33.7,30.35,SE,145,7.0,10.0,90,0.00,,---,0.00,0.00,VWS V14.01,2013-03-11 05:02:00,
2013-03-11 01:07:00,36.3,33.7,30.35,SSE,156,9.0,11.0,90,0.00,,---,0.00,0.00,VWS V14.01,2013-03-11 05:07:00,
2013-03-11 01:12:00,36.3,33.7,30.35,SSE,155,9.0,11.0,90,0.00,,---,0.00,0.00,VWS V14.01,2013-03-11 05:12:00,
2013-03-11 01:17:00,36.4,33.8,30.35,SSE,160,9.0,9.0,90,0.00,,---,0.00,0.00,VWS V14.01,2013-03-11 05:17:00,
2013-03-11 01:22:00,36.4,33.8,30.36,SSE,166,7.0,9.0,90,0.00,,---,0.00,0.00,VWS V14.01,2013-03-11 05:22:00,
2013-03-11 01:27:00,36.6,34.0,30.35,SE,141,10.0,11.0,90,0.00,,---,0.00,0.00,VWS V14.01,2013-03-11 05:27:00,
2013-03-11 01:30:00,36.0,33.1,30.36,SE,144,10.0,11.0,89,0.00,,,0.00,0.00,VWS V14.01,2013-03-11 05:30:00,
2013-03-11 01:32:00,36.7,34.0,30.35,SSE,165,7.0,8.0,90,0.00,,---,0.00,0.00,VWS V14.01,2013-03-11 05:32:00,
2013-03-11 01:37:00,36.8,33.9,30.35,SSE,167,7.0,9.0,89,0.00,,---,0.00,0.00,VWS V14.01,2013-03-11 05:37:00,
2013-03-11 01:42:00,36.8,33.9,30.35,South,170,7.0,10.0,89,0.00,,---,0.00,0.00,VWS V14.01,2013-03-11 05:42:00,
2013-03-11 01:47:00,36.8,33.9,30.36,South,173,8.0,9.0,89,0.00,,---,0.00,0.00,VWS V14.01,2013-03-11 05:47:00,
2013-03-11 01:52:00,36.9,34.0,30.35,South,182,9.0,10.0,89,0.00,,---,0.00,0.00,VWS V14.01,2013-03-11 05:52:00,
2013-03-11 01:57:00,36.9,34.0,30.35,South,180,8.0,10.0,89,0.00,,---,0.00,0.00,VWS V14.01,2013-03-11 05:57:00,
2013-03-11 02:00:00,36.3,33.4,30.35,SE,138,9.0,11.0,89,0.00,,,0.00,0.00,VWS V14.01,2013-03-11 06:00:00,
2013-03-11 02:02:00,37.0,34.1,30.35,South,171,8.0,9.0,89,0.00,,---,0.00,0.00,VWS V14.01,2013-03-11 06:02:00,
2013-03-11 02:07:00,37.0,34.3,30.36,South,184,8.0,10.0,90,0.00,,---,0.00,0.00,VWS V14.01,2013-03-11 06:07:00,
2013-03-11 02:12:00,37.0,34.1,30.36,South,189,10.0,10.0,89,0.00,,---,0.00,0.00,VWS V14.01,2013-03-11 06:12:00,
2013-03-11 02:17:00,37.1,34.2,30.36,SSW,194,10.0,11.0,89,0.00,,---,0.00,0.00,VWS V14.01,2013-03-11 06:17:00,
2013-03-11 02:22:00,37.1,34.2,30.36,SSW,212,8.0,12.0,89,0.00,,---,0.00,0.00,VWS V14.01,2013-03-11 06:22:00,
2013-03-11 02:27:00,37.2,34.3,30.36,South,190,6.0,12.0,89,0.00,,---,0.00,0.00,VWS V14.01,2013-03-11 06:27:00,
2013-03-11 02:32:00,37.2,34.3,30.36,SW,231,10.0,10.0,89,0.00,,---,0.00,0.00,VWS V14.01,2013-03-11 06:32:00,
2013-03-11 02:37:00,37.3,34.1,30.36,SSW,200,9.0,12.0,88,0.00,,---,0.00,0.00,VWS V14.01,2013-03-11 06:37:00,
2013-03-11 02:42:00,37.3,34.1,30.36,SSW,198,13.0,14.0,88,0.00,,---,0.00,0.00,VWS V14.01,2013-03-11 06:42:00,
2013-03-11 02:45:00,36.8,33.9,30.36,South,179,7.0,10.0,89,0.00,,,0.00,0.00,VWS V14.01,2013-03-11 06:45:00,
2013-03-11 02:47:00,37.4,34.2,30.36,SW,216,10.0,11.0,88,0.00,,---,0.00,0.00,VWS V14.01,2013-03-11 06:47:00,
2013-03-11 02:52:00,37.4,34.2,30.36,SSW,209,12.0,16.0,88,0.00,,---,0.00,0.00,VWS V14.01,2013-03-11 06:52:00,
2013-03-11 02:57:00,37.4,34.2,30.36,SSW,206,11.0,16.0,88,0.00,,---,0.00,0.00,VWS V14.01,2013-03-11 06:57:00,
2013-03-11 03:00:00,36.9,34.0,30.35,South,172,9.0,10.0,89,0.00,,,0.00,0.00,VWS V14.01,2013-03-11 07:00:00,
2013-03-11 03:02:00,37.4,34.2,30.35,SW,221,13.0,13.0,88,0.00,,---,0.00,0.00,VWS V14.01,2013-03-11 07:02:00,
2013-03-11 03:07:00,37.4,34.2,30.36,SW,220,11.0,14.0,88,0.00,,---,0.00,0.00,VWS V14.01,2013-03-11 07:07:00,
2013-03-11 03:12:00,37.5,34.0,30.36,SW,215,11.0,-999.0,88,-99.99,,,0.00,0,weatherlink.com 1.10,2013-03-11 07:12:00,
2013-03-11 03:17:00,37.5,34.6,30.36,SW,224,12.0,13.0,89,0.00,,---,0.00,0.00,VWS V14.01,2013-03-11 07:17:00,
2013-03-11 03:23:00,37.5,34.3,30.35,SW,215,14.0,16.0,88,0.00,,---,0.00,0.00,VWS V14.01,2013-03-11 07:23:00,
2013-03-11 03:28:00,37.5,34.6,30.35,SW,220,10.0,16.0,89,0.00,,---,0.00,0.00,VWS V14.01,2013-03-11 07:28:00,
2013-03-11 03:30:00,37.2,34.3,30.36,SW,226,6.0,12.0,89,0.00,,,0.00,0.00,VWS V14.01,2013-03-11 07:30:00,
2013-03-11 03:33:00,37.5,34.6,30.34,SSW,207,9.0,12.0,89,0.00,,---,0.00,0.00,VWS V14.01,2013-03-11 07:33:00,
2013-03-11 03:38:00,37.5,34.3,30.33,SSW,198,11.0,12.0,88,0.00,,---,0.00,0.00,VWS V14.01,2013-03-11 07:38:00,
2013-03-11 03:42:00,37.5,34.3,30.33,SW,219,10.0,13.0,88,0.00,,---,0.00,0.00,VWS V14.01,2013-03-11 07:42:00,
2013-03-11 03:45:00,37.4,34.2,30.35,SSW,202,9.0,14.0,88,0.00,,,0.00,0.00,VWS V14.01,2013-03-11 07:45:00,
2013-03-11 03:47:00,37.5,34.3,30.33,SSW,210,11.0,14.0,88,0.00,,---,0.00,0.00,VWS V14.01,2013-03-11 07:47:00,
2013-03-11 03:52:00,37.5,34.3,30.33,SW,215,10.0,14.0,88,0.00,,---,0.00,0.00,VWS V14.01,2013-03-11 07:52:00,
2013-03-11 03:57:00,37.5,34.3,30.32,SSW,211,8.0,14.0,88,0.00,,---,0.00,0.00,VWS V14.01,2013-03-11 07:57:00,
2013-03-11 04:00:00,37.4,34.2,30.35,SW,217,10.0,16.0,88,0.00,,,0.00,0.00,VWS V14.01,2013-03-11 08:00:00,
2013-03-11 04:02:00,37.5,34.3,30.32,SSW,193,10.0,11.0,88,0.00,,---,0.00,0.00,VWS V14.01,2013-03-11 08:02:00,
2013-03-11 04:08:00,37.5,34.3,30.31,SSW,194,12.0,13.0,88,0.00,,---,0.00,0.00,VWS V14.01,2013-03-11 08:08:00,
2013-03-11 04:13:00,37.4,34.2,30.31,South,174,9.0,13.0,88,0.00,,---,0.00,0.00,VWS V14.01,2013-03-11 08:13:00,
2013-03-11 04:15:00,37.5,34.3,30.36,SW,218,10.0,14.0,88,0.00,,,0.00,0.00,VWS V14.01,2013-03-11 08:15:00,
2013-03-11 04:18:00,37.4,34.2,30.31,SW,217,11.0,11.0,88,0.00,,---,0.00,0.00,VWS V14.01,2013-03-11 08:18:00,
2013-03-11 04:23:00,37.5,34.6,30.31,SSW,193,8.0,12.0,89,0.00,,---,0.00,0.00,VWS V14.01,2013-03-11 08:23:00,
2013-03-11 04:28:00,37.5,34.6,30.31,South,176,12.0,13.0,89,0.00,,---,0.00,0.00,VWS V14.01,2013-03-11 08:28:00,
2013-03-11 04:33:00,37.5,34.3,30.32,SSW,200,12.0,12.0,88,0.00,,---,0.00,0.00,VWS V14.01,2013-03-11 08:33:00,
2013-03-11 04:38:00,37.5,34.3,30.31,SSW,192,9.0,13.0,88,0.00,,---,0.00,0.00,VWS V14.01,2013-03-11 08:38:00,
2013-03-11 04:43:00,37.4,34.2,30.31,South,185,11.0,14.0,88,0.00,,---,0.00,0.00,VWS V14.01,2013-03-11 08:43:00,
2013-03-11 04:48:00,37.4,34.5,30.31,SSW,207,9.0,12.0,89,0.00,,---,0.00,0.00,VWS V14.01,2013-03-11 08:48:00,
2013-03-11 04:53:00,37.4,34.2,30.32,SSW,202,11.0,15.0,88,0.00,,---,0.00,0.00,VWS V14.01,2013-03-11 08:53:00,
2013-03-11 04:58:00,37.4,34.2,30.32,South,187,14.0,15.0,88,0.00,,---,0.00,0.00,VWS V14.01,2013-03-11 08:58:00,
2013-03-11 05:00:00,37.5,34.6,30.32,SW,216,9.0,14.0,89,0.00,,,0.00,0.00,VWS V14.01,2013-03-11 09:00:00,
2013-03-11 05:03:00,37.4,34.2,30.32,SSW,192,10.0,13.0,88,0.00,,---,0.00,0.00,VWS V14.01,2013-03-11 09:03:00,
2013-03-11 05:08:00,37.4,34.2,30.32,SSW,196,12.0,14.0,88,0.00,,---,0.00,0.00,VWS V14.01,2013-03-11 09:08:00,
2013-03-11 05:13:00,37.5,34.6,30.32,SSW,203,10.0,14.0,89,0.00,,---,0.00,0.00,VWS V14.01,2013-03-11 09:13:00,
2013-03-11 05:18:00,37.5,34.6,30.32,SSW,211,9.0,11.0,89,0.00,,---,0.00,0.00,VWS V14.01,2013-03-11 09:18:00,
2013-03-11 05:23:00,37.5,34.6,30.32,SSW,198,8.0,12.0,89,0.00,,---,0.00,0.00,VWS V14.01,2013-03-11 09:23:00,
2013-03-11 05:28:00,37.5,34.6,30.32,South,190,10.0,12.0,89,0.00,,---,0.00,0.00,VWS V14.01,2013-03-11 09:28:00,
2013-03-11 05:30:00,37.5,34.3,30.31,South,182,9.0,13.0,88,0.00,,,0.00,0.00,VWS V14.01,2013-03-11 09:30:00,
2013-03-11 05:33:00,37.4,34.5,30.32,SW,222,7.0,11.0,89,0.00,,---,0.00,0.00,VWS V14.01,2013-03-11 09:33:00,
2013-03-11 05:38:00,37.4,34.2,30.32,SW,218,9.0,14.0,88,0.00,,---,0.00,0.00,VWS V14.01,2013-03-11 09:38:00,
2013-03-11 05:43:00,37.5,34.3,30.32,WSW,239,11.0,14.0,88,0.00,,---,0.00,0.00,VWS V14.01,2013-03-11 09:43:00,
2013-03-11 05:48:00,37.5,34.3,30.32,SSW,213,10.0,12.0,88,0.00,,---,0.00,0.00,VWS V14.01,2013-03-11 09:48:00,
2013-03-11 05:53:00,37.5,34.6,30.32,SW,220,9.0,12.0,89,0.00,,---,0.00,0.00,VWS V14.01,2013-03-11 09:53:00,
2013-03-11 05:58:00,37.5,34.6,30.32,SSW,213,11.0,12.0,89,0.00,,---,0.00,0.00,VWS V14.01,2013-03-11 09:58:00,
2013-03-11 06:03:00,37.5,34.3,30.32,SW,215,9.0,12.0,88,0.00,,---,0.00,0.00,VWS V14.01,2013-03-11 10:03:00,
2013-03-11 06:08:00,37.5,34.3,30.33,SW,222,9.0,13.0,88,0.00,,---,0.00,0.00,VWS V14.01,2013-03-11 10:08:00,
2013-03-11 06:13:00,37.5,34.3,30.32,SSW,213,9.0,13.0,88,0.00,,---,0.00,0.00,VWS V14.01,2013-03-11 10:13:00,
2013-03-11 06:15:00,37.5,34.6,30.32,SSW,202,11.0,14.0,89,0.00,,,0.00,0.00,VWS V14.01,2013-03-11 10:15:00,
2013-03-11 06:18:00,37.5,34.6,30.32,SSW,205,8.0,10.0,89,0.00,,---,0.00,0.00,VWS V14.01,2013-03-11 10:18:00,
2013-03-11 06:23:00,37.5,34.6,30.32,SW,219,9.0,11.0,89,0.00,,---,0.00,0.00,VWS V14.01,2013-03-11 10:23:00,
2013-03-11 06:28:00,37.5,34.6,30.32,SW,214,9.0,11.0,89,0.00,,---,0.00,0.00,VWS V14.01,2013-03-11 10:28:00,
2013-03-11 06:30:00,37.4,34.5,30.32,SW,214,11.0,14.0,89,0.00,,,0.00,0.00,VWS V14.01,2013-03-11 10:30:00,
2013-03-11 06:33:00,37.5,34.6,30.32,SW,221,7.0,8.0,89,0.00,,---,0.00,0.00,VWS V14.01,2013-03-11 10:33:00,
2013-03-11 06:38:00,37.5,34.6,30.32,SSW,192,7.0,8.0,89,0.00,,---,0.00,0.00,VWS V14.01,2013-03-11 10:38:00,
2013-03-11 06:43:00,37.5,34.8,30.32,SSW,194,7.0,8.0,90,0.00,,---,0.00,0.00,VWS V14.01,2013-03-11 10:43:00,
2013-03-11 06:48:00,37.4,34.7,30.32,SSW,192,7.0,7.0,90,0.00,,---,0.00,0.00,VWS V14.01,2013-03-11 10:48:00,
2013-03-11 06:53:00,37.4,34.7,30.32,SSW,198,7.0,8.0,90,0.00,,---,0.00,0.00,VWS V14.01,2013-03-11 10:53:00,
2013-03-11 06:58:00,37.4,34.7,30.33,SSW,201,7.0,8.0,90,0.00,,---,0.00,0.00,VWS V14.01,2013-03-11 10:58:00,
2013-03-11 07:00:00,37.5,34.6,30.32,SSW,209,10.0,12.0,89,0.00,,,0.00,0.00,VWS V14.01,2013-03-11 11:00:00,
2013-03-11 07:03:00,37.4,35.0,30.33,SSW,206,7.0,-999.0,90,-99.99,,,0.00,0,weatherlink.com 1.10,2013-03-11 11:03:00,
2013-03-11 07:08:00,37.5,34.8,30.33,South,191,7.0,9.0,90,0.00,,---,0.00,7.00,VWS V14.01,2013-03-11 11:08:00,
2013-03-11 07:13:00,37.4,34.7,30.33,SSW,192,7.0,9.0,90,0.00,,---,0.00,11.00,VWS V14.01,2013-03-11 11:13:00,
2013-03-11 07:15:00,37.5,34.3,30.32,SSW,204,10.0,13.0,88,0.00,,,0.00,0.00,VWS V14.01,2013-03-11 11:15:00,
2013-03-11 07:18:00,37.4,34.7,30.33,South,190,8.0,9.0,90,0.00,,---,0.00,16.00,VWS V14.01,2013-03-11 11:18:00,
2013-03-11 07:23:00,37.4,34.7,30.33,SSW,193,7.0,9.0,90,0.00,,---,0.00,19.00,VWS V14.01,2013-03-11 11:23:00,
2013-03-11 07:28:00,37.5,34.8,30.33,South,190,8.0,9.0,90,0.00,,---,0.00,26.00,VWS V14.01,2013-03-11 11:28:00,
2013-03-11 07:30:00,37.5,34.6,30.32,SW,221,8.0,11.0,89,0.00,,,0.00,0.00,VWS V14.01,2013-03-11 11:30:00,
2013-03-11 07:33:00,37.5,34.8,30.33,South,176,6.0,7.0,90,0.00,,---,0.00,42.00,VWS V14.01,2013-03-11 11:33:00,
2013-03-11 07:38:00,37.6,35.2,30.33,SSE,159,7.0,7.0,91,0.00,,---,0.00,53.00,VWS V14.01,2013-03-11 11:38:00,
2013-03-11 07:43:00,37.6,35.2,30.33,SSE,163,5.0,7.0,91,0.00,,---,0.00,56.00,VWS V14.01,2013-03-11 11:43:00,
2013-03-11 07:45:00,37.4,34.7,30.32,SSW,192,7.0,8.0,90,0.00,,,0.00,0.00,VWS V14.01,2013-03-11 11:45:00,
2013-03-11 07:48:00,37.6,35.2,30.33,South,169,7.0,8.0,91,0.00,,---,0.00,60.00,VWS V14.01,2013-03-11 11:48:00,
2013-03-11 07:54:00,37.6,35.2,30.33,SSE,161,8.0,9.0,91,0.00,,---,0.00,65.00,VWS V14.01,2013-03-11 11:54:00,
2013-03-11 07:59:00,37.7,35.3,30.32,SSE,154,9.0,9.0,91,0.00,,---,0.00,58.00,VWS V14.01,2013-03-11 11:59:00,
2013-03-11 08:04:00,37.7,35.0,30.32,SSE,147,9.0,11.0,90,0.00,,---,0.00,54.00,VWS V14.01,2013-03-11 12:04:00,
2013-03-11 08:09:00,37.7,35.0,30.32,SSE,155,10.0,11.0,90,0.00,,---,0.00,56.00,VWS V14.01,2013-03-11 12:09:00,
2013-03-11 08:14:00,37.8,35.1,30.32,SSE,149,8.0,11.0,90,0.00,,---,0.00,62.00,VWS V14.01,2013-03-11 12:14:00,
2013-03-11 08:19:00,37.8,35.1,30.33,SSE,151,8.0,10.0,90,0.00,,---,0.00,37.00,VWS V14.01,2013-03-11 12:19:00,
2013-03-11 08:24:00,37.8,35.1,30.32,SSE,157,9.0,10.0,90,0.00,,---,0.00,33.00,VWS V14.01,2013-03-11 12:24:00,
2013-03-11 08:29:00,37.8,35.1,30.32,SSE,161,8.0,10.0,90,0.00,,---,0.00,32.00,VWS V14.01,2013-03-11 12:29:00,
2013-03-11 08:34:00,37.8,35.1,30.33,SSE,154,8.0,10.0,90,0.00,,---,0.00,83.00,VWS V14.01,2013-03-11 12:34:00,
2013-03-11 08:39:00,37.9,35.2,30.33,SSE,155,10.0,10.0,90,0.00,,---,0.00,109.00,VWS V14.01,2013-03-11 12:39:00,
2013-03-11 08:44:00,38.0,35.3,30.32,SSE,148,10.0,11.0,90,0.00,,---,0.00,128.00,VWS V14.01,2013-03-11 12:44:00,
2013-03-11 08:49:00,38.2,35.5,30.32,SE,141,10.0,11.0,90,0.00,,---,0.00,146.00,VWS V14.01,2013-03-11 12:49:00,
2013-03-11 08:54:00,38.3,35.6,30.32,SSE,147,10.0,11.0,90,0.00,,---,0.00,153.00,VWS V14.01,2013-03-11 12:54:00,
2013-03-11 08:59:00,38.5,35.8,30.32,SE,138,9.0,11.0,90,0.00,,---,0.00,162.00,VWS V14.01,2013-03-11 12:59:00,
2013-03-11 09:00:00,37.7,35.3,30.32,SSE,159,9.0,10.0,91,0.00,,,0.00,58.00,VWS V14.01,2013-03-11 13:00:00,
2013-03-11 09:04:00,38.6,35.6,30.32,SSE,153,9.0,11.0,89,0.00,,---,0.00,163.00,VWS V14.01,2013-03-11 13:04:00,
2013-03-11 09:09:00,38.8,35.8,30.31,SE,146,8.0,11.0,89,0.00,,---,0.00,171.00,VWS V14.01,2013-03-11 13:09:00,
2013-03-11 09:14:00,38.9,35.9,30.32,SE,144,10.0,11.0,89,0.00,,---,0.00,176.00,VWS V14.01,2013-03-11 13:14:00,
2013-03-11 09:15:00,37.8,35.1,30.32,SSE,156,6.0,11.0,90,0.00,,,0.00,49.00,VWS V14.01,2013-03-11 13:15:00,
2013-03-11 09:19:00,39.0,36.0,30.31,SSE,151,7.0,9.0,89,0.00,,---,0.00,178.00,VWS V14.01,2013-03-11 13:19:00,
2013-03-11 09:24:00,39.1,36.1,30.31,SSE,157,7.0,9.0,89,0.00,,---,0.00,214.00,VWS V14.01,2013-03-11 13:24:00,
2013-03-11 09:29:00,39.3,36.0,30.31,SE,146,8.0,9.0,88,0.00,,---,0.00,209.00,VWS V14.01,2013-03-11 13:29:00,
2013-03-11 09:34:00,39.5,36.2,30.31,SE,146,7.0,8.0,88,0.00,,---,0.00,207.00,VWS V14.01,2013-03-11 13:34:00,
2013-03-11 09:39:00,39.6,36.3,30.32,SE,146,6.0,8.0,88,0.00,,---,0.00,213.00,VWS V14.01,2013-03-11 13:39:00,
2013-03-11 09:44:00,39.7,36.4,30.32,SSE,150,5.0,8.0,88,0.00,,---,0.00,214.00,VWS V14.01,2013-03-11 13:44:00,
2013-03-11 09:45:00,38.0,35.3,30.32,SSE,148,10.0,11.0,90,0.00,,,0.00,134.00,VWS V14.01,2013-03-11 13:45:00,
2013-03-11 09:49:00,40.0,36.7,30.32,SE,142,6.0,8.0,88,0.00,,---,0.00,285.00,VWS V14.01,2013-03-11 13:49:00,
2013-03-11 09:54:00,40.3,38.2,30.31,SE,146,6.0,8.0,92,0.00,,---,0.00,336.00,VWS V14.01,2013-03-11 13:54:00,
2013-03-11 09:59:00,40.7,37.1,30.31,SE,144,5.0,8.0,87,0.00,,---,0.00,350.00,VWS V14.01,2013-03-11 13:59:00,
2013-03-11 10:00:00,38.5,35.8,30.32,SE,141,9.0,11.0,90,0.00,,,0.00,158.00,VWS V14.01,2013-03-11 14:00:00,
2013-03-11 10:04:00,41.1,37.2,30.31,SE,144,5.0,6.0,86,0.00,,---,0.00,327.00,VWS V14.01,2013-03-11 14:04:00,
2013-03-11 10:09:00,41.5,37.3,30.31,SE,136,4.0,6.0,85,0.00,,---,0.00,322.00,VWS V14.01,2013-03-11 14:09:00,
2013-03-11 10:14:00,41.8,37.3,30.31,SE,144,5.0,6.0,84,0.00,,---,0.00,325.00,VWS V14.01,2013-03-11 14:14:00,
2013-03-11 10:15:00,38.9,35.9,30.31,SSE,155,8.0,12.0,89,0.00,,,0.00,185.00,VWS V14.01,2013-03-11 14:15:00,
2013-03-11 10:19:00,42.0,37.5,30.32,SE,142,4.0,5.0,84,0.00,,---,0.00,323.00,VWS V14.01,2013-03-11 14:19:00,
2013-03-11 10:24:00,41.7,36.9,30.32,SE,142,2.0,5.0,83,0.00,,---,0.00,299.00,VWS V14.01,2013-03-11 14:24:00,
2013-03-11 10:29:00,41.3,37.1,30.32,SE,143,2.0,5.0,85,0.00,,---,0.00,327.00,VWS V14.01,2013-03-11 14:29:00,
2013-03-11 10:34:00,41.1,37.2,30.32,SE,143,4.0,4.0,86,0.00,,---,0.00,283.00,VWS V14.01,2013-03-11 14:34:00,
2013-03-11 10:39:00,41.1,37.2,30.33,SSE,147,2.0,4.0,86,0.00,,---,0.00,299.00,VWS V14.01,2013-03-11 14:39:00,
2013-03-11 10:44:00,40.8,36.9,30.33,SSW,206,2.0,4.0,86,0.00,,---,0.00,290.00,VWS V14.01,2013-03-11 14:44:00,
2013-03-11 10:49:00,40.7,37.1,30.33,SW,215,2.0,4.0,87,0.00,,---,0.00,304.00,VWS V14.01,2013-03-11 14:49:00,
2013-03-11 10:54:00,40.6,37.0,30.32,SSW,211,2.0,4.0,87,0.00,,---,0.00,327.00,VWS V14.01,2013-03-11 14:54:00,
2013-03-11 10:59:00,40.5,36.9,30.32,SSW,201,4.0,5.0,87,0.00,,---,0.00,334.00,VWS V14.01,2013-03-11 14:59:00,
2013-03-11 11:00:00,40.9,37.3,30.31,SE,130,5.0,8.0,87,0.00,,,0.00,345.00,VWS V14.01,2013-03-11 15:00:00,
2013-03-11 11:04:00,40.4,37.1,30.32,SSW,192,5.0,6.0,88,0.00,,---,0.00,362.00,VWS V14.01,2013-03-11 15:04:00,
2013-03-11 11:09:00,40.4,37.1,30.32,SSW,211,5.0,6.0,88,0.00,,---,0.00,341.00,VWS V14.01,2013-03-11 15:09:00,
2013-03-11 11:14:00,40.4,37.1,30.32,SW,221,5.0,6.0,88,0.00,,---,0.00,373.00,VWS V14.01,2013-03-11 15:14:00,
2013-03-11 11:19:00,40.3,37.0,30.32,SW,233,5.0,5.0,88,0.00,,---,0.00,345.00,VWS V14.01,2013-03-11 15:19:00,
2013-03-11 11:24:00,40.1,37.1,30.32,SW,233,4.0,5.0,89,0.00,,---,0.00,350.00,VWS V14.01,2013-03-11 15:24:00,
2013-03-11 11:29:00,40.2,37.2,30.32,SW,229,4.0,5.0,89,0.00,,---,0.00,413.00,VWS V14.01,2013-03-11 15:29:00,
2013-03-11 11:30:00,41.2,37.0,30.33,SE,143,4.0,5.0,85,0.00,,,0.00,320.00,VWS V14.01,2013-03-11 15:30:00,
2013-03-11 11:34:00,40.2,37.2,30.33,SW,234,5.0,5.0,89,0.00,,---,0.00,251.00,VWS V14.01,2013-03-11 15:34:00,
2013-03-11 11:39:00,40.0,37.0,30.33,SW,234,5.0,5.0,89,0.00,,---,0.00,276.00,VWS V14.01,2013-03-11 15:39:00,
2013-03-11 11:44:00,39.9,37.2,30.32,SW,231,4.0,5.0,90,0.00,,---,0.00,306.00,VWS V14.01,2013-03-11 15:44:00,
2013-03-11 11:45:00,40.7,36.8,30.33,SW,215,3.0,4.0,86,0.00,,,0.00,287.00,VWS V14.01,2013-03-11 15:45:00,
2013-03-11 11:49:00,39.8,37.1,30.32,WSW,237,4.0,5.0,90,0.00,,---,0.00,285.00,VWS V14.01,2013-03-11 15:49:00,
2013-03-11 11:54:00,39.7,37.0,30.32,SW,224,4.0,5.0,90,0.00,,---,0.00,178.00,VWS V14.01,2013-03-11 15:54:00,
2013-03-11 11:59:00,39.8,37.1,30.32,SW,217,6.0,6.0,90,0.00,,---,0.00,232.00,VWS V14.01,2013-03-11 15:59:00,
2013-03-11 12:04:00,39.8,37.1,30.32,SSW,207,8.0,8.0,90,0.00,,---,0.00,214.00,VWS V14.01,2013-03-11 16:04:00,
2013-03-11 12:09:00,39.7,37.0,30.32,SSW,213,8.0,9.0,90,0.00,,---,0.00,258.00,VWS V14.01,2013-03-11 16:09:00,
2013-03-11 12:14:00,39.8,37.1,30.32,SSW,198,8.0,9.0,90,0.00,,---,0.00,364.00,VWS V14.01,2013-03-11 16:14:00,
2013-03-11 12:19:00,40.0,37.3,30.32,SSW,197,6.0,7.0,90,0.00,,---,0.00,417.00,VWS V14.01,2013-03-11 16:19:00,
2013-03-11 12:24:00,40.4,37.7,30.31,South,191,5.0,7.0,90,0.00,,---,0.00,431.00,VWS V14.01,2013-03-11 16:24:00,
2013-03-11 12:29:00,40.6,37.6,30.31,South,184,7.0,7.0,89,0.00,,---,0.00,406.00,VWS V14.01,2013-03-11 16:29:00,
2013-03-11 12:30:00,40.3,37.3,30.32,SW,229,4.0,5.0,89,0.00,,,0.00,301.00,VWS V14.01,2013-03-11 16:30:00,
2013-03-11 12:34:00,40.7,37.7,30.31,South,186,6.0,8.0,89,0.00,,---,0.00,417.00,VWS V14.01,2013-03-11 16:34:00,
2013-03-11 12:39:00,40.9,37.9,30.31,South,187,9.0,10.0,89,0.00,,---,0.00,420.00,VWS V14.01,2013-03-11 16:39:00,
2013-03-11 12:44:00,41.0,38.0,30.30,South,188,11.0,12.0,89,0.00,,---,0.00,374.00,VWS V14.01,2013-03-11 16:44:00,
2013-03-11 12:45:00,39.9,37.2,30.32,SW,236,4.0,5.0,90,0.00,,,0.00,316.00,VWS V14.01,2013-03-11 16:45:00,
2013-03-11 12:49:00,41.0,38.0,30.30,SSW,192,9.0,11.0,89,0.00,,---,0.00,362.00,VWS V14.01,2013-03-11 16:49:00,
2013-03-11 12:54:00,40.9,37.9,30.30,South,190,8.0,11.0,89,0.00,,---,0.00,341.00,VWS V14.01,2013-03-11 16:54:00,
2013-03-11 12:59:00,40.9,37.9,30.30,South,182,12.0,15.0,89,0.00,,---,0.00,441.00,VWS V14.01,2013-03-11 16:59:00,
2013-03-11 13:00:00,39.8,37.1,30.32,SSW,209,7.0,7.0,90,0.00,,,0.00,193.00,VWS V14.01,2013-03-11 17:00:00,
2013-03-11 13:04:00,40.9,37.9,30.30,South,173,16.0,16.0,89,0.00,,---,0.00,385.00,VWS V14.01,2013-03-11 17:04:00,
2013-03-11 13:10:00,40.9,37.9,30.30,South,176,14.0,16.0,89,0.00,,---,0.00,411.00,VWS V14.01,2013-03-11 17:10:00,
2013-03-11 13:15:00,40.9,37.9,30.30,South,179,13.0,16.0,89,0.00,,---,0.00,309.00,VWS V14.01,2013-03-11 17:15:00,
2013-03-11 13:20:00,41.0,38.0,30.30,South,180,11.0,14.0,89,0.00,,---,0.00,345.00,VWS V14.01,2013-03-11 17:20:00,
2013-03-11 13:30:00,40.7,37.7,30.31,South,191,7.0,8.0,89,0.00,,,0.00,360.00,VWS V14.01,2013-03-11 17:30:00,
2013-03-11 13:45:00,41.0,38.0,30.31,South,185,10.0,12.0,89,0.00,,,0.00,392.00,VWS V14.01,2013-03-11 17:45:00,
2013-03-11 14:27:00,43.2,39.0,30.27,SSE,159,9.0,-999.0,86,-99.99,,,0.00,475,weatherlink.com 1.10,2013-03-11 18:27:00,
2013-03-11 14:32:00,43.1,39.2,30.27,SSE,159,10.0,11.0,86,0.00,,---,0.00,381.00,VWS V14.01,2013-03-11 18:32:00,
2013-03-11 14:37:00,42.8,39.2,30.27,SSE,159,10.0,12.0,87,0.00,,---,0.00,359.00,VWS V14.01,2013-03-11 18:37:00,
2013-03-11 14:42:00,42.7,39.1,30.26,SSE,153,12.0,13.0,87,0.00,,---,0.00,512.00,VWS V14.01,2013-03-11 18:42:00,
2013-03-11 14:47:00,42.9,39.3,30.26,SSE,155,12.0,12.0,87,0.00,,---,0.00,522.00,VWS V14.01,2013-03-11 18:47:00,
2013-03-11 14:52:00,43.1,39.5,30.26,SSE,162,10.0,13.0,87,0.00,,---,0.00,396.00,VWS V14.01,2013-03-11 18:52:00,
2013-03-11 14:57:00,42.6,38.7,30.26,South,171,9.0,13.0,86,0.00,,---,0.00,392.00,VWS V14.01,2013-03-11 18:57:00,
2013-03-11 15:02:00,42.2,38.9,30.27,South,175,11.0,12.0,88,0.00,,---,0.00,353.00,VWS V14.01,2013-03-11 19:02:00,
2013-03-11 15:07:00,42.1,38.8,30.26,South,170,10.0,12.0,88,0.00,,---,0.00,381.00,VWS V14.01,2013-03-11 19:07:00,
2013-03-11 15:12:00,42.0,39.0,30.27,South,176,11.0,12.0,89,0.00,,---,0.00,397.00,VWS V14.01,2013-03-11 19:12:00,
2013-03-11 15:17:00,42.0,39.0,30.27,South,180,11.0,12.0,89,0.00,,---,0.00,378.00,VWS V14.01,2013-03-11 19:17:00,
2013-03-11 15:22:00,42.0,39.0,30.26,South,174,11.0,13.0,89,0.00,,---,0.00,373.00,VWS V14.01,2013-03-11 19:22:00,
2013-03-11 15:28:00,42.1,39.1,30.26,SSE,157,10.0,13.0,89,0.00,,---,0.00,410.00,VWS V14.01,2013-03-11 19:28:00,
2013-03-11 15:30:00,43.1,39.2,30.27,SSE,161,10.0,14.0,86,0.00,,,0.00,373.00,VWS V14.01,2013-03-11 19:30:00,
2013-03-11 15:33:00,42.5,39.5,30.26,SSE,157,12.0,12.0,89,0.00,,---,0.00,482.00,VWS V14.01,2013-03-11 19:33:00,
2013-03-11 15:38:00,43.1,39.8,30.26,SSE,158,13.0,15.0,88,0.00,,---,0.00,466.00,VWS V14.01,2013-03-11 19:38:00,
2013-03-11 15:43:00,43.4,39.8,30.25,SSE,152,14.0,15.0,87,0.00,,---,0.00,468.00,VWS V14.01,2013-03-11 19:43:00,
2013-03-11 15:48:00,43.4,39.8,30.26,SSE,161,12.0,13.0,87,0.00,,---,0.00,432.00,VWS V14.01,2013-03-11 19:48:00,
2013-03-11 15:53:00,43.2,39.6,30.26,SSE,163,13.0,14.0,87,0.00,,---,0.00,406.00,VWS V14.01,2013-03-11 19:53:00,
2013-03-11 15:58:00,42.9,39.3,30.25,SSE,161,14.0,14.0,87,0.00,,---,0.00,353.00,VWS V14.01,2013-03-11 19:58:00,
2013-03-11 16:00:00,42.3,39.0,30.26,South,176,11.0,13.0,88,0.00,,,0.00,348.00,VWS V14.01,2013-03-11 20:00:00,
2013-03-11 16:03:00,42.9,39.3,30.25,SSE,156,13.0,14.0,87,0.00,,---,0.00,325.00,VWS V14.01,2013-03-11 20:03:00,
2013-03-11 16:08:00,42.9,39.6,30.25,SSE,161,13.0,16.0,88,0.00,,---,0.00,308.00,VWS V14.01,2013-03-11 20:08:00,
2013-03-11 16:13:00,42.9,39.6,30.25,SSE,163,14.0,16.0,88,0.00,,---,0.00,301.00,VWS V14.01,2013-03-11 20:13:00,
2013-03-11 16:15:00,42.0,39.0,30.27,South,176,12.0,13.0,89,0.00,,,0.00,411.00,VWS V14.01,2013-03-11 20:15:00,
2013-03-11 16:18:00,42.8,39.5,30.25,SSE,159,14.0,15.0,88,0.00,,---,0.00,285.00,VWS V14.01,2013-03-11 20:18:00,
2013-03-11 16:23:00,42.7,39.4,30.25,SSE,166,14.0,15.0,88,0.00,,---,0.00,257.00,VWS V14.01,2013-03-11 20:23:00,
2013-03-11 16:28:00,42.5,39.5,30.25,SSE,156,13.0,16.0,89,0.00,,---,0.00,225.00,VWS V14.01,2013-03-11 20:28:00,
2013-03-11 16:33:00,42.5,39.5,30.25,SSE,160,14.0,15.0,89,0.00,,---,0.00,213.00,VWS V14.01,2013-03-11 20:33:00,
2013-03-11 16:38:00,42.4,39.4,30.25,SSE,163,15.0,15.0,89,0.00,,---,0.00,195.00,VWS V14.01,2013-03-11 20:38:00,
2013-03-11 16:43:00,42.3,39.3,30.25,SSE,159,12.0,16.0,89,0.00,,---,0.00,181.00,VWS V14.01,2013-03-11 20:43:00,
2013-03-11 16:48:00,42.2,39.5,30.25,SSE,164,14.0,16.0,90,0.00,,---,0.00,171.00,VWS V14.01,2013-03-11 20:48:00,
2013-03-11 16:53:00,42.1,39.4,30.25,SSE,162,15.0,16.0,90,0.00,,---,0.00,162.00,VWS V14.01,2013-03-11 20:53:00,
2013-03-11 16:58:00,42.0,39.0,30.25,SSE,161,14.0,16.0,89,0.00,,---,0.00,148.00,VWS V14.01,2013-03-11 20:58:00,
2013-03-11 17:00:00,42.9,39.3,30.25,SSE,166,13.0,14.0,87,0.00,,,0.00,332.00,VWS V14.01,2013-03-11 21:00:00,
2013-03-11 17:03:00,41.8,39.1,30.25,SSE,154,12.0,13.0,90,0.00,,---,0.00,137.00,VWS V14.01,2013-03-11 21:03:00,
2013-03-11 17:08:00,41.7,39.0,30.25,SSE,155,13.0,13.0,90,0.00,,---,0.00,127.00,VWS V14.01,2013-03-11 21:08:00,
2013-03-11 17:13:00,41.6,38.9,30.25,SSE,154,11.0,14.0,90,0.00,,---,0.00,116.00,VWS V14.01,2013-03-11 21:13:00,
2013-03-11 17:18:00,41.6,38.9,30.24,SSE,150,13.0,13.0,90,0.00,,---,0.00,107.00,VWS V14.01,2013-03-11 21:18:00,
2013-03-11 17:23:00,41.6,38.9,30.25,SSE,152,11.0,13.0,90,0.00,,---,0.00,98.00,VWS V14.01,2013-03-11 21:23:00,
2013-03-11 17:28:00,41.6,38.9,30.24,SSE,150,10.0,13.0,90,0.00,,---,0.00,93.00,VWS V14.01,2013-03-11 21:28:00,
2013-03-11 17:33:00,41.5,38.8,30.25,SSE,154,11.0,11.0,90,0.00,,---,0.00,79.00,VWS V14.01,2013-03-11 21:33:00,
2013-03-11 17:38:00,41.4,39.0,30.25,SSE,149,9.0,11.0,91,0.00,,---,0.00,69.00,VWS V14.01,2013-03-11 21:38:00,
2013-03-11 17:43:00,41.3,38.9,30.25,SSE,155,9.0,11.0,91,0.00,,---,0.00,58.00,VWS V14.01,2013-03-11 21:43:00,
2013-03-11 17:45:00,42.2,39.5,30.25,SSE,157,13.0,16.0,90,0.00,,,0.00,176.00,VWS V14.01,2013-03-11 21:45:00,
2013-03-11 17:48:00,41.3,38.9,30.25,SSE,150,10.0,10.0,91,0.00,,---,0.00,47.00,VWS V14.01,2013-03-11 21:48:00,
2013-03-11 17:53:00,41.3,38.9,30.25,SSE,150,9.0,10.0,91,0.00,,---,0.00,40.00,VWS V14.01,2013-03-11 21:53:00,
2013-03-11 17:58:00,41.3,38.9,30.25,SSE,149,9.0,10.0,91,0.00,,---,0.00,37.00,VWS V14.01,2013-03-11 21:58:00,
2013-03-11 18:03:00,41.3,38.9,30.25,SE,144,9.0,12.0,91,0.00,,---,0.00,32.00,VWS V14.01,2013-03-11 22:03:00,
2013-03-11 18:08:00,41.3,38.9,30.25,SE,144,9.0,12.0,91,0.00,,---,0.00,26.00,VWS V14.01,2013-03-11 22:08:00,
2013-03-11 18:13:00,41.3,38.9,30.24,SE,135,11.0,14.0,91,0.00,,---,0.00,23.00,VWS V14.01,2013-03-11 22:13:00,
2013-03-11 18:15:00,41.6,38.9,30.24,SSE,153,12.0,14.0,90,0.00,,,0.00,111.00,VWS V14.01,2013-03-11 22:15:00,
2013-03-11 18:18:00,41.4,39.0,30.24,SE,133,12.0,14.0,91,0.00,,---,0.00,19.00,VWS V14.01,2013-03-11 22:18:00,
2013-03-11 18:23:00,41.4,39.0,30.24,SE,135,13.0,15.0,91,0.00,,---,0.00,16.00,VWS V14.01,2013-03-11 22:23:00,
2013-03-11 18:28:00,41.4,39.0,30.24,SE,136,13.0,16.0,91,0.00,,---,0.00,12.00,VWS V14.01,2013-03-11 22:28:00,
2013-03-11 18:30:00,41.5,38.8,30.25,SSE,154,10.0,13.0,90,0.00,,,0.00,84.00,VWS V14.01,2013-03-11 22:30:00,
2013-03-11 18:33:00,41.3,38.9,30.24,SE,138,14.0,16.0,91,0.00,,---,0.00,9.00,VWS V14.01,2013-03-11 22:33:00,
2013-03-11 18:38:00,41.3,38.9,30.24,SE,132,14.0,17.0,91,0.00,,---,0.00,5.00,VWS V14.01,2013-03-11 22:38:00,
2013-03-11 18:43:00,41.2,38.8,30.24,SE,144,13.0,17.0,91,0.00,,---,0.00,0.00,VWS V14.01,2013-03-11 22:43:00,
2013-03-11 18:45:00,41.3,38.9,30.25,SSE,148,9.0,11.0,91,0.00,,,0.00,53.00,VWS V14.01,2013-03-11 22:45:00,
2013-03-11 18:48:00,41.2,39.1,30.24,SE,135,13.0,14.0,92,0.00,,---,0.00,0.00,VWS V14.01,2013-03-11 22:48:00,
2013-03-11 18:53:00,41.1,39.0,30.24,SE,142,12.0,14.0,92,0.00,,---,0.00,0.00,VWS V14.01,2013-03-11 22:53:00,
2013-03-11 18:58:00,41.0,38.9,30.24,SE,139,14.0,14.0,92,0.00,,---,0.00,0.00,VWS V14.01,2013-03-11 22:58:00,
2013-03-11 19:03:00,41.0,38.9,30.24,SE,145,11.0,13.0,92,0.00,,---,0.00,0.00,VWS V14.01,2013-03-11 23:03:00,
2013-03-11 19:08:00,41.0,38.9,30.24,SE,139,12.0,13.0,92,0.00,,---,0.00,0.00,VWS V14.01,2013-03-11 23:08:00,
2013-03-11 19:13:00,40.9,38.8,30.24,SE,139,11.0,13.0,92,0.00,,---,0.00,0.00,VWS V14.01,2013-03-11 23:13:00,
2013-03-11 19:18:00,40.9,38.8,30.24,SE,140,12.0,13.0,92,0.00,,---,0.00,0.00,VWS V14.01,2013-03-11 23:18:00,
2013-03-11 19:23:00,40.9,38.8,30.24,SE,140,11.0,14.0,92,0.00,,---,0.00,0.00,VWS V14.01,2013-03-11 23:23:00,
2013-03-11 19:28:00,40.9,38.8,30.24,SE,138,12.0,14.0,92,0.00,,---,0.00,0.00,VWS V14.01,2013-03-11 23:28:00,
2013-03-11 19:30:00,41.4,39.0,30.24,SE,137,13.0,16.0,91,0.00,,,0.00,11.00,VWS V14.01,2013-03-11 23:30:00,
2013-03-11 19:33:00,40.9,38.8,30.24,SE,146,12.0,13.0,92,0.00,,---,0.00,0.00,VWS V14.01,2013-03-11 23:33:00,
2013-03-11 19:38:00,40.9,38.8,30.24,SSE,150,10.0,13.0,92,0.00,,---,0.00,0.00,VWS V14.01,2013-03-11 23:38:00,
2013-03-11 19:43:00,40.8,38.7,30.24,SE,146,11.0,13.0,92,0.00,,---,0.00,0.00,VWS V14.01,2013-03-11 23:43:00,
2013-03-11 19:48:00,40.9,38.8,30.24,SE,142,11.0,13.0,92,0.00,,---,0.00,0.00,VWS V14.01,2013-03-11 23:48:00,
2013-03-11 19:53:00,40.9,38.8,30.24,SE,140,12.0,13.0,92,0.00,,---,0.00,0.00,VWS V14.01,2013-03-11 23:53:00,
2013-03-11 19:58:00,40.9,39.0,30.24,SE,143,9.0,13.0,93,0.00,,---,0.00,0.00,VWS V14.01,2013-03-11 23:58:00,
2013-03-11 20:03:00,40.9,38.8,30.24,SE,136,9.0,11.0,92,0.00,,---,0.00,0.00,VWS V14.01,2013-03-12 00:03:00,
2013-03-11 20:08:00,40.9,39.0,30.24,SE,129,9.0,-999.0,92,-99.99,,,0.00,0,weatherlink.com 1.10,2013-03-12 00:08:00,
2013-03-11 20:13:00,41.0,38.9,30.24,ESE,122,9.0,11.0,92,0.00,,---,0.00,0.00,VWS V14.01,2013-03-12 00:13:00,
2013-03-11 20:19:00,40.9,38.8,30.24,SE,136,10.0,12.0,92,0.00,,---,0.00,0.00,VWS V14.01,2013-03-12 00:19:00,
2013-03-11 20:24:00,40.9,38.8,30.24,SE,126,12.0,13.0,92,0.00,,---,0.00,0.00,VWS V14.01,2013-03-12 00:24:00,
2013-03-11 20:29:00,41.0,39.1,30.23,SE,124,13.0,14.0,93,0.00,,---,0.00,0.00,VWS V14.01,2013-03-12 00:29:00,
2013-03-11 20:34:00,41.0,39.1,30.23,ESE,120,12.0,14.0,93,0.00,,---,0.00,0.00,VWS V14.01,2013-03-12 00:34:00,
2013-03-11 20:39:00,41.0,39.1,30.23,ESE,123,13.0,14.0,93,0.00,,---,0.00,0.00,VWS V14.01,2013-03-12 00:39:00,
2013-03-11 20:44:00,41.0,40.5,30.23,ESE,121,12.0,14.0,98,0.00,,---,0.00,0.00,VWS V14.01,2013-03-12 00:44:00,
2013-03-11 20:45:00,40.9,38.8,30.24,SSE,148,12.0,13.0,92,0.00,,,0.00,0.00,VWS V14.01,2013-03-12 00:45:00,
2013-03-11 20:49:00,41.0,39.1,30.23,ESE,122,11.0,13.0,93,0.00,,---,0.00,0.00,VWS V14.01,2013-03-12 00:49:00,
2013-03-11 20:54:00,40.9,39.0,30.23,SE,131,11.0,13.0,93,0.00,,---,0.00,0.00,VWS V14.01,2013-03-12 00:54:00,
2013-03-11 20:59:00,41.0,39.1,30.23,SE,129,11.0,13.0,93,0.00,,---,0.00,0.00,VWS V14.01,2013-03-12 00:59:00,
2013-03-11 21:00:00,40.9,38.8,30.24,SE,137,9.0,13.0,92,0.00,,,0.00,0.00,VWS V14.01,2013-03-12 01:00:00,
2013-03-11 21:04:00,40.9,39.0,30.23,ESE,121,9.0,12.0,93,0.00,,---,0.00,0.00,VWS V14.01,2013-03-12 01:04:00,
2013-03-11 21:09:00,40.9,39.0,30.22,ESE,123,9.0,12.0,93,0.00,,---,0.00,0.00,VWS V14.01,2013-03-12 01:09:00,
2013-03-11 21:14:00,40.9,39.0,30.23,SE,137,9.0,12.0,93,0.00,,---,0.00,0.00,VWS V14.01,2013-03-12 01:14:00,
2013-03-11 21:15:00,41.0,38.9,30.24,SE,133,12.0,12.0,92,0.00,,,0.00,0.00,VWS V14.01,2013-03-12 01:15:00,
2013-03-11 21:19:00,41.0,39.1,30.23,SE,138,11.0,13.0,93,0.00,,---,0.00,0.00,VWS V14.01,2013-03-12 01:19:00,
2013-03-11 21:24:00,41.1,39.2,30.23,SSE,148,10.0,14.0,93,0.00,,---,0.00,0.00,VWS V14.01,2013-03-12 01:24:00,
2013-03-11 21:29:00,41.2,39.3,30.23,SE,143,11.0,14.0,93,0.00,,---,0.00,0.00,VWS V14.01,2013-03-12 01:29:00,
2013-03-11 21:34:00,41.2,39.3,30.23,SE,134,13.0,13.0,93,0.00,,---,0.00,0.00,VWS V14.01,2013-03-12 01:34:00,
2013-03-11 21:39:00,41.3,39.4,30.22,SSE,152,12.0,15.0,93,0.00,,---,0.00,0.00,VWS V14.01,2013-03-12 01:39:00,
2013-03-11 21:44:00,41.4,39.5,30.22,SE,137,13.0,15.0,93,0.00,,---,0.00,0.00,VWS V14.01,2013-03-12 01:44:00,
2013-03-11 21:49:00,41.5,39.6,30.22,SE,136,13.0,15.0,93,0.00,,---,0.00,0.00,VWS V14.01,2013-03-12 01:49:00,
2013-03-11 21:54:00,41.6,39.7,30.22,SE,140,13.0,16.0,93,0.00,,---,0.00,0.00,VWS V14.01,2013-03-12 01:54:00,
2013-03-11 21:59:00,41.6,39.7,30.22,SE,136,14.0,16.0,93,0.00,,---,0.00,0.00,VWS V14.01,2013-03-12 01:59:00,
2013-03-11 22:04:00,41.6,39.7,30.22,SE,136,12.0,15.0,93,0.00,,---,0.00,0.00,VWS V14.01,2013-03-12 02:04:00,
2013-03-11 22:09:00,41.6,39.7,30.22,SE,136,13.0,15.0,93,0.00,,---,0.00,0.00,VWS V14.01,2013-03-12 02:09:00,
2013-03-11 22:14:00,41.6,39.7,30.22,SE,139,13.0,15.0,93,0.00,,---,0.00,0.00,VWS V14.01,2013-03-12 02:14:00,
2013-03-11 22:19:00,41.6,39.7,30.22,SE,128,14.0,15.0,93,0.00,,---,0.00,0.00,VWS V14.01,2013-03-12 02:19:00,
2013-03-11 22:24:00,41.6,39.7,30.22,SE,131,14.0,15.0,93,0.00,,---,0.00,0.00,VWS V14.01,2013-03-12 02:24:00,
2013-03-11 22:29:00,41.6,39.7,30.22,ESE,123,11.0,15.0,93,0.00,,---,0.00,0.00,VWS V14.01,2013-03-12 02:29:00,
2013-03-11 22:30:00,41.2,39.3,30.23,SE,139,12.0,14.0,93,0.00,,,0.00,0.00,VWS V14.01,2013-03-12 02:30:00,
2013-03-11 22:34:00,41.6,39.7,30.21,SE,128,13.0,13.0,93,0.00,,---,0.00,0.00,VWS V14.01,2013-03-12 02:34:00,
2013-03-11 22:39:00,41.5,39.6,30.21,SE,128,13.0,14.0,93,0.00,,---,0.00,0.00,VWS V14.01,2013-03-12 02:39:00,
2013-03-11 22:44:00,41.5,39.6,30.21,ESE,123,14.0,14.0,93,0.00,,---,0.00,0.00,VWS V14.01,2013-03-12 02:44:00,
2013-03-11 22:45:00,41.5,39.6,30.22,SE,134,14.0,15.0,93,0.00,,,0.00,0.00,VWS V14.01,2013-03-12 02:45:00,
2013-03-11 22:49:00,41.4,39.5,30.21,SE,125,13.0,14.0,93,0.00,,---,0.00,0.00,VWS V14.01,2013-03-12 02:49:00,
2013-03-11 22:54:00,41.4,39.5,30.20,SE,127,14.0,15.0,93,0.00,,---,0.00,0.00,VWS V14.01,2013-03-12 02:54:00,
2013-03-11 22:59:00,41.4,39.8,30.20,SE,127,16.0,16.0,94,0.00,,---,0.00,0.00,VWS V14.01,2013-03-12 02:59:00,
2013-03-11 23:00:00,41.6,39.7,30.22,SE,132,14.0,16.0,93,0.00,,,0.00,0.00,VWS V14.01,2013-03-12 03:00:00,
2013-03-11 23:04:00,41.4,39.5,30.20,ESE,121,14.0,15.0,93,0.00,,---,0.00,0.00,VWS V14.01,2013-03-12 03:04:00,
2013-03-11 23:09:00,41.3,39.4,30.21,ESE,123,14.0,15.0,93,0.00,,---,0.00,0.00,VWS V14.01,2013-03-12 03:09:00,
2013-03-11 23:14:00,41.3,39.7,30.20,SE,124,13.0,16.0,94,0.00,,---,0.00,0.00,VWS V14.01,2013-03-12 03:14:00,
2013-03-11 23:15:00,41.6,39.7,30.22,SE,130,13.0,15.0,93,0.00,,,0.00,0.00,VWS V14.01,2013-03-12 03:15:00,
2013-03-11 23:19:00,41.3,39.7,30.20,SE,127,14.0,16.0,94,0.00,,---,0.00,0.00,VWS V14.01,2013-03-12 03:19:00,
2013-03-11 23:24:00,41.3,39.7,30.20,SE,133,14.0,16.0,94,0.00,,---,0.00,0.00,VWS V14.01,2013-03-12 03:24:00,
2013-03-11 23:29:00,41.4,39.8,30.21,SE,138,12.0,16.0,94,0.00,,---,0.00,0.00,VWS V14.01,2013-03-12 03:29:00,
2013-03-11 23:34:00,41.4,39.8,30.21,SE,127,13.0,15.0,94,0.00,,---,0.00,0.00,VWS V14.01,2013-03-12 03:34:00,
2013-03-11 23:39:00,41.4,39.8,30.21,SE,135,14.0,17.0,94,0.00,,---,0.00,0.00,VWS V14.01,2013-03-12 03:39:00,
2013-03-11 23:44:00,41.5,39.9,30.20,SE,130,16.0,18.0,94,0.00,,---,0.00,0.00,VWS V14.01,2013-03-12 03:44:00,
2013-03-11 23:45:00,41.4,39.5,30.21,SE,129,14.0,14.0,93,0.00,,,0.00,0.00,VWS V14.01,2013-03-12 03:45:00,
2013-03-11 23:49:00,41.5,39.9,30.21,SE,137,15.0,17.0,94,0.00,,---,0.00,0.00,VWS V14.01,2013-03-12 03:49:00,
2013-03-11 23:54:00,41.5,39.9,30.20,SE,136,14.0,17.0,94,0.00,,---,0.00,0.00,VWS V14.01,2013-03-12 03:54:00,
2013-03-11 23:59:00,41.6,40.0,30.21,SE,145,15.0,17.0,94,0.00,,---,0.00,0.00,VWS V14.01,2013-03-12 03:59:00,